Time;durP1;ratioP1;P1;durP2;ratioP2;P2;SDS_P1;SDS_P2;PMS_P1;PMS_P2;Temp;Humidity;BMP_temperature;BMP_pressure;BME280_temperature;BME280_humidity;BME280_pressure;Samples;Min_cycle;Max_cycle;Signal;HPM_P1;HPM_P2
2022/01/10 03:47:21;;;;;;;95.55;47.50;;;2.80;99.90;;;;;;4884284;24;20063;-80
2022/01/10 03:49:48;;;;;;;99.10;47.47;;;3.00;99.90;;;;;;4766144;30;20328;-80
2022/01/10 03:52:14;;;;;;;;;;;3.00;99.90;;;;;;4751812;30;20036;-81
2022/01/10 03:54:40;;;;;;;102.53;48.30;;;3.10;99.90;;;;;;4777577;30;19918;-80
2022/01/10 03:57:06;;;;;;;89.28;45.70;;;3.10;99.90;;;;;;4759219;30;20040;-81
2022/01/10 03:59:33;;;;;;;98.53;46.58;;;3.10;99.90;;;;;;4762026;30;20048;-81
2022/01/10 04:01:59;;;;;;;95.65;44.50;;;3.10;99.90;;;;;;4750988;30;20036;-81
2022/01/10 04:04:26;;;;;;;98.25;47.25;;;3.20;99.90;;;;;;4765946;30;20227;-81
2022/01/10 04:06:52;;;;;;;102.30;46.95;;;3.30;99.90;;;;;;4762785;30;20033;-80
2022/01/10 04:09:19;;;;;;;91.70;46.72;;;3.30;99.90;;;;;;4761419;30;20031;-81
2022/01/10 04:11:45;;;;;;;94.65;44.63;;;3.50;99.90;;;;;;4751123;30;20042;-80
2022/01/10 04:14:11;;;;;;;90.93;44.13;;;3.50;99.80;;;;;;4762772;30;20039;-81
2022/01/10 04:16:37;;;;;;;98.40;47.17;;;3.60;99.60;;;;;;4747744;30;20040;-81
2022/01/10 04:19:03;;;;;;;97.93;47.13;;;3.60;99.50;;;;;;4762927;30;20040;-81
2022/01/10 04:21:29;;;;;;;96.53;47.20;;;3.60;99.30;;;;;;4769480;30;20040;-81
2022/01/10 04:23:55;;;;;;;97.43;50.55;;;3.70;99.20;;;;;;4763237;30;20059;-82
2022/01/10 04:26:21;;;;;;;90.72;45.63;;;3.70;99.20;;;;;;4747935;30;20175;-81
2022/01/10 04:28:48;;;;;;;96.80;46.08;;;3.70;99.20;;;;;;4747874;30;20111;-80
2022/01/10 04:31:14;;;;;;;93.13;45.20;;;3.80;99.30;;;;;;4747641;30;20047;-80
2022/01/10 04:33:40;;;;;;;92.73;46.57;;;3.70;99.30;;;;;;4753564;30;20408;-80
2022/01/10 04:36:07;;;;;;;90.05;46.17;;;3.80;99.30;;;;;;4765320;30;20473;-80
2022/01/10 04:38:34;;;;;;;85.50;43.13;;;3.80;99.40;;;;;;4762479;30;20036;-80
2022/01/10 04:41:04;;;;;;;82.40;43.97;;;3.80;99.40;;;;;;4762791;30;20033;-80
2022/01/10 04:43:30;;;;;;;86.85;42.25;;;3.90;99.30;;;;;;4733251;30;20054;-80
2022/01/10 04:45:56;;;;;;;82.10;41.67;;;3.90;99.40;;;;;;4764940;30;20076;-81
2022/01/10 04:48:22;;;;;;;87.80;44.10;;;3.90;99.40;;;;;;4750269;30;20107;-80
2022/01/10 04:53:34;;;;;;;87.60;41.05;;;3.90;99.30;;;;;;4766238;30;20036;-81
2022/01/10 04:56:00;;;;;;;75.22;40.75;;;3.90;99.20;;;;;;4735577;30;20201;-80
2022/01/10 04:58:26;;;;;;;78.70;40.30;;;3.90;99.30;;;;;;4779654;30;20035;-81
2022/01/10 05:00:53;;;;;;;81.07;40.53;;;4.00;99.50;;;;;;4779513;30;20044;-81
2022/01/10 05:03:20;;;;;;;80.90;40.50;;;4.00;99.60;;;;;;4764824;30;20038;-81
2022/01/10 05:05:53;;;;;;;86.50;42.03;;;4.00;99.50;;;;;;4779689;30;20327;-80
2022/01/10 05:08:20;;;;;;;81.95;41.20;;;4.00;99.40;;;;;;4765317;30;20107;-81
2022/01/10 05:10:47;;;;;;;73.13;36.35;;;4.00;99.40;;;;;;4779410;30;20044;-81
2022/01/10 05:13:13;;;;;;;44.58;25.88;;;4.00;99.40;;;;;;4764940;30;20035;-80
2022/01/10 05:15:39;;;;;;;38.40;21.75;;;4.00;99.80;;;;;;4735070;30;20046;-80
2022/01/10 05:18:04;;;;;;;38.85;18.13;;;4.00;99.90;;;;;;4779064;30;20406;-80
2022/01/10 05:20:30;;;;;;;27.52;14.32;;;4.00;99.90;;;;;;4735562;30;20093;-81
2022/01/10 05:22:56;;;;;;;25.80;12.90;;;4.10;99.90;;;;;;4735147;30;20031;-81
2022/01/10 05:25:22;;;;;;;37.53;14.13;;;4.20;99.90;;;;;;4735237;30;20104;-80
2022/01/10 05:27:48;;;;;;;26.17;11.82;;;4.20;99.90;;;;;;4746638;30;20035;-80
2022/01/10 05:30:14;;;;;;;23.05;9.40;;;4.20;99.90;;;;;;4738758;30;20040;-80
2022/01/10 05:32:42;;;;;;;19.77;8.52;;;4.30;99.90;;;;;;4735901;30;20039;-79
2022/01/10 05:35:28;;;;;;;17.98;7.75;;;4.30;99.90;;;;;;4742197;30;20354;-80
2022/01/10 05:37:54;;;;;;;17.85;7.38;;;4.40;99.90;;;;;;4760972;30;20039;-80
2022/01/10 05:40:20;;;;;;;14.90;7.55;;;4.40;99.90;;;;;;4746516;30;20040;-80
2022/01/10 05:42:46;;;;;;;18.15;7.40;;;4.50;99.90;;;;;;4758166;30;20064;-80
2022/01/10 05:45:12;;;;;;;11.98;6.78;;;4.50;99.90;;;;;;4769769;30;20304;-81
2022/01/10 05:47:43;;;;;;;13.87;6.27;;;4.60;99.90;;;;;;4763890;30;20093;-81
2022/01/10 05:50:11;;;;;;;21.23;7.60;;;4.60;99.90;;;;;;4774824;30;20070;-81
2022/01/10 05:52:42;;;;;;;17.83;7.57;;;4.70;99.90;;;;;;4766798;30;20281;-81
2022/01/10 05:55:11;;;;;;;19.60;7.35;;;4.70;99.90;;;;;;4748808;30;20107;-82
2022/01/10 05:57:40;;;;;;;18.10;7.07;;;4.70;99.90;;;;;;4774948;30;20023;-82
2022/01/10 06:00:08;;;;;;;13.73;6.15;;;4.70;99.90;;;;;;4770738;30;20090;-82
2022/01/10 06:02:43;;;;;;;21.05;6.75;;;4.70;99.90;;;;;;4771123;30;20044;-79
2022/01/10 06:05:19;;;;;;;18.23;6.13;;;4.70;99.90;;;;;;4780906;30;20223;-82
2022/01/10 06:07:48;;;;;;;16.77;6.40;;;4.70;99.90;;;;;;4778763;30;20149;-81
2022/01/10 06:10:15;;;;;;;13.27;6.03;;;4.70;99.90;;;;;;4782556;30;20038;-81
2022/01/10 06:12:42;;;;;;;15.55;6.45;;;4.80;99.90;;;;;;4772238;30;20408;-81
2022/01/10 06:15:08;;;;;;;14.15;6.75;;;4.80;99.90;;;;;;4752877;30;20036;-80
2022/01/10 06:17:39;;;;;;;24.63;7.22;;;4.80;99.90;;;;;;4762624;30;20101;-81
2022/01/10 06:20:05;;;;;;;23.42;9.07;;;4.80;99.90;;;;;;4752016;30;20028;-81
2022/01/10 06:22:32;;;;;;;20.73;8.02;;;4.80;99.80;;;;;;4778386;30;20024;-81
2022/01/10 06:24:58;;;;;;;16.43;7.20;;;4.90;99.80;;;;;;4779279;30;20032;-80
2022/01/10 06:27:27;;;;;;;13.73;5.65;;;4.90;99.80;;;;;;4781636;30;20059;-81
2022/01/10 06:29:53;;;;;;;12.47;5.80;;;4.90;99.70;;;;;;4752637;30;20593;-81
2022/01/10 06:32:19;;;;;;;16.63;6.40;;;4.90;99.70;;;;;;4749622;30;20232;-80
2022/01/10 06:34:45;;;;;;;17.13;7.18;;;5.00;99.70;;;;;;4735086;30;20357;-81
2022/01/10 06:37:11;;;;;;;16.20;6.25;;;5.00;99.60;;;;;;4744641;30;20150;-80
2022/01/10 06:39:41;;;;;;;16.67;5.85;;;5.00;99.60;;;;;;4781765;30;20032;-81
2022/01/10 06:42:07;;;;;;;17.02;6.28;;;5.00;99.50;;;;;;4781924;30;20036;-81
2022/01/10 06:44:33;;;;;;;16.73;6.53;;;5.00;99.40;;;;;;4767191;30;20063;-81
2022/01/10 06:47:00;;;;;;;14.95;5.85;;;5.10;99.20;;;;;;4757168;30;20070;-80
2022/01/10 06:49:25;;;;;;;15.20;5.50;;;5.10;99.00;;;;;;4751774;30;20327;-81
2022/01/10 06:51:51;;;;;;;14.00;6.25;;;5.20;99.10;;;;;;4751300;30;20299;-81
2022/01/10 06:54:20;;;;;;;15.07;6.10;;;5.20;98.80;;;;;;4749871;30;20097;-81
2022/01/10 06:56:46;;;;;;;10.88;5.97;;;5.20;98.80;;;;;;4757464;30;20057;-81
2022/01/10 06:59:12;;;;;;;15.40;5.70;;;5.20;98.70;;;;;;4763166;30;20223;-82
2022/01/10 07:01:46;;;;;;;15.85;6.45;;;5.30;98.60;;;;;;4761824;30;20043;-81
2022/01/10 07:04:12;;;;;;;17.83;6.65;;;5.30;98.50;;;;;;4765017;30;20360;-82
2022/01/10 07:06:42;;;;;;;19.20;6.07;;;5.20;98.30;;;;;;4736417;30;20031;-81
2022/01/10 07:09:16;;;;;;;18.58;6.13;;;5.30;98.40;;;;;;4766537;30;20287;-81
2022/01/10 07:12:05;;;;;;;16.10;5.75;;;5.30;98.20;;;;;;4767630;30;20035;-81
2022/01/10 07:14:40;;;;;;;17.95;6.80;;;5.40;98.10;;;;;;4752869;30;20332;-82
2022/01/10 07:17:08;;;;;;;13.07;6.00;;;5.30;98.00;;;;;;4750999;30;20031;-82
2022/01/10 07:19:34;;;;;;;11.23;5.90;;;5.40;98.00;;;;;;4739003;30;20031;-81
2022/01/10 07:22:00;;;;;;;18.27;6.38;;;5.40;97.80;;;;;;4749638;30;20036;-82
2022/01/10 07:24:27;;;;;;;13.70;5.30;;;5.40;97.70;;;;;;4758083;30;20036;-82
2022/01/10 07:26:52;;;;;;;15.98;5.38;;;5.40;97.60;;;;;;4780517;30;20347;-82
2022/01/10 07:29:18;;;;;;;13.75;4.70;;;5.40;97.60;;;;;;4761258;30;20040;-82
2022/01/10 07:31:44;;;;;;;11.93;6.15;;;5.40;97.30;;;;;;4750422;30;20062;-82
2022/01/10 07:34:12;;;;;;;12.05;5.60;;;5.40;97.20;;;;;;4739389;30;20327;-82
2022/01/10 07:36:37;;;;;;;13.40;5.90;;;5.50;97.30;;;;;;4762339;30;20038;-82
2022/01/10 07:39:04;;;;;;;16.65;6.43;;;5.50;97.20;;;;;;4780218;30;20032;-82
2022/01/10 07:41:30;;;;;;;12.45;6.28;;;5.50;97.20;;;;;;4780127;30;20087;-82
2022/01/10 07:43:56;;;;;;;14.90;5.97;;;5.40;97.10;;;;;;4750539;30;20354;-82
2022/01/10 07:46:23;;;;;;;17.42;7.57;;;5.40;97.20;;;;;;4753994;30;20282;-82
2022/01/10 07:48:49;;;;;;;10.35;5.40;;;5.50;97.10;;;;;;4777403;30;20163;-82
2022/01/10 07:51:15;;;;;;;15.57;5.93;;;5.50;97.00;;;;;;4736236;30;20050;-82
2022/01/10 07:53:42;;;;;;;16.40;5.95;;;5.50;96.90;;;;;;4750470;30;20122;-82
2022/01/10 07:56:11;;;;;;;16.63;7.10;;;5.50;97.00;;;;;;4795172;30;20040;-82
2022/01/10 07:58:37;;;;;;;15.50;6.30;;;5.50;97.00;;;;;;4780121;30;20110;-80
2022/01/10 08:01:04;;;;;;;18.05;6.60;;;5.50;97.00;;;;;;4750410;30;20281;-81
2022/01/10 08:03:30;;;;;;;13.25;6.90;;;5.50;97.20;;;;;;4780155;30;20422;-81
2022/01/10 08:05:55;;;;;;;17.95;6.22;;;5.60;97.10;;;;;;4779986;30;20035;-81
2022/01/10 08:08:21;;;;;;;15.77;6.22;;;5.60;97.50;;;;;;4777158;30;20028;-81
2022/01/10 08:10:47;;;;;;;19.20;6.85;;;5.60;97.40;;;;;;4779482;30;20043;-81
2022/01/10 08:13:13;;;;;;;24.60;8.40;;;5.60;97.40;;;;;;4779528;30;20036;-81
2022/01/10 08:15:39;;;;;;;18.10;7.63;;;5.50;97.50;;;;;;4747309;30;20099;-82
2022/01/10 08:18:06;;;;;;;17.02;8.65;;;5.50;97.80;;;;;;4748368;30;20099;-81
2022/01/10 08:20:33;;;;;;;16.33;7.60;;;5.50;98.00;;;;;;4794325;30;20042;-81
2022/01/10 08:22:58;;;;;;;17.42;8.52;;;5.50;98.30;;;;;;4790051;30;20099;-81
2022/01/10 08:25:24;;;;;;;20.63;8.45;;;5.50;98.50;;;;;;4765012;30;20081;-81
2022/01/10 08:27:50;;;;;;;19.80;8.07;;;5.50;98.80;;;;;;4735101;30;20044;-81
2022/01/10 08:30:16;;;;;;;16.00;7.50;;;5.50;99.10;;;;;;4779619;30;20032;-80
2022/01/10 08:32:46;;;;;;;20.45;9.82;;;5.50;99.20;;;;;;4750310;30;20280;-81
2022/01/10 08:35:12;;;;;;;20.10;9.93;;;5.50;99.50;;;;;;4750406;30;20039;-81
2022/01/10 08:37:38;;;;;;;22.40;9.65;;;5.40;99.50;;;;;;4780801;30;20068;-81
2022/01/10 08:40:04;;;;;;;25.15;10.32;;;5.40;99.60;;;;;;4778887;30;20036;-81
2022/01/10 08:42:31;;;;;;;19.77;9.60;;;5.40;99.60;;;;;;4779024;30;20224;-81
2022/01/10 08:44:57;;;;;;;23.77;10.30;;;5.30;99.60;;;;;;4749439;30;20047;-80
2022/01/10 08:47:23;;;;;;;21.57;10.50;;;5.30;99.70;;;;;;4764394;30;20294;-81
2022/01/10 08:49:49;;;;;;;31.80;9.40;;;5.30;99.80;;;;;;4749555;30;20236;-81
2022/01/10 08:52:16;;;;;;;18.67;8.88;;;5.30;99.60;;;;;;4764424;30;20036;-81
2022/01/10 08:54:42;;;;;;;22.05;8.43;;;5.20;99.70;;;;;;4773411;30;20070;-81
2022/01/10 08:57:08;;;;;;;16.13;7.63;;;5.20;99.90;;;;;;4788223;30;20036;-81
2022/01/10 08:59:34;;;;;;;23.38;8.55;;;5.20;99.90;;;;;;4779286;30;20066;-81
2022/01/10 09:02:00;;;;;;;19.17;9.48;;;5.30;99.90;;;;;;4765850;30;20529;-81
2022/01/10 09:04:26;;;;;;;19.45;9.27;;;5.30;99.80;;;;;;4767159;30;20035;-81
2022/01/10 09:06:55;;;;;;;17.92;8.80;;;5.30;99.80;;;;;;4761815;30;20339;-81
2022/01/10 09:09:22;;;;;;;23.77;9.00;;;5.30;99.90;;;;;;4778913;30;20031;-81
2022/01/10 09:11:49;;;;;;;22.90;8.95;;;5.40;99.80;;;;;;4778835;30;20040;-80
2022/01/10 09:14:15;;;;;;;23.80;10.07;;;5.30;99.90;;;;;;4764482;30;20040;-80
2022/01/10 09:16:42;;;;;;;18.00;9.93;;;5.40;99.90;;;;;;4763856;30;20235;-80
2022/01/10 09:19:08;;;;;;;18.73;9.30;;;5.50;99.80;;;;;;4779634;30;20220;-80
2022/01/10 09:21:34;;;;;;;20.25;9.43;;;5.50;99.70;;;;;;4778886;30;20040;-80
2022/01/10 09:24:00;;;;;;;21.15;10.23;;;5.40;99.70;;;;;;4778685;30;20035;-80
2022/01/10 09:26:26;;;;;;;21.43;10.60;;;5.50;99.90;;;;;;4763750;30;20127;-80
2022/01/10 09:28:52;;;;;;;20.05;9.30;;;5.50;99.80;;;;;;4763341;30;20285;-80
2022/01/10 09:31:19;;;;;;;17.80;9.82;;;5.50;99.90;;;;;;4778215;30;20062;-80
2022/01/10 09:33:52;;;;;;;16.55;9.27;;;5.60;99.80;;;;;;4790955;30;20032;-81
2022/01/10 09:36:18;;;;;;;24.85;9.27;;;5.60;99.70;;;;;;4750136;30;20119;-81
2022/01/10 09:38:43;;;;;;;17.40;10.32;;;5.60;99.60;;;;;;4749391;30;20030;-80
2022/01/10 09:41:09;;;;;;;27.40;11.10;;;5.60;99.70;;;;;;4775624;30;20032;-81
2022/01/10 09:43:35;;;;;;;20.92;10.90;;;5.70;99.70;;;;;;4748537;30;20274;-81
2022/01/10 09:46:01;;;;;;;20.83;10.82;;;5.70;99.60;;;;;;4764192;30;20051;-81
2022/01/10 09:48:27;;;;;;;20.13;10.90;;;5.80;99.50;;;;;;4793353;30;20351;-81
2022/01/10 09:50:53;;;;;;;21.77;10.68;;;5.80;99.50;;;;;;4764496;30;20039;-81
2022/01/10 09:53:21;;;;;;;28.08;13.23;;;5.80;99.50;;;;;;4778961;30;20042;-81
2022/01/10 09:55:48;;;;;;;29.25;13.82;;;5.80;99.40;;;;;;4764224;30;20339;-81
2022/01/10 09:58:14;;;;;;;26.45;13.13;;;5.80;99.50;;;;;;4778712;30;20043;-81
2022/01/10 10:00:40;;;;;;;27.83;14.00;;;5.80;99.50;;;;;;4770585;30;20208;-80
2022/01/10 10:03:06;;;;;;;33.67;17.48;;;5.80;99.50;;;;;;4782934;30;20035;-82
2022/01/10 10:05:32;;;;;;;25.55;12.82;;;5.80;99.50;;;;;;4743671;30;20051;-81
2022/01/10 10:07:58;;;;;;;26.02;12.10;;;5.80;99.30;;;;;;4773681;30;20039;-81
2022/01/10 10:10:27;;;;;;;22.52;13.75;;;5.80;99.60;;;;;;4772605;30;20044;-81
2022/01/10 10:12:54;;;;;;;21.98;13.10;;;5.90;99.50;;;;;;4788664;30;20051;-82
2022/01/10 10:15:30;;;;;;;28.08;13.32;;;6.00;99.40;;;;;;4769877;30;20058;-81
2022/01/10 10:17:56;;;;;;;26.13;15.40;;;6.00;99.10;;;;;;4772866;30;20044;-81
2022/01/10 10:20:23;;;;;;;29.88;15.23;;;6.10;99.10;;;;;;4777169;30;20306;-81
2022/01/10 10:22:52;;;;;;;29.42;15.07;;;6.10;98.70;;;;;;4768357;30;20105;-82
2022/01/10 10:25:19;;;;;;;30.33;17.67;;;6.20;98.90;;;;;;4780660;30;20032;-81
2022/01/10 10:27:47;;;;;;;30.17;15.23;;;6.20;98.70;;;;;;4768503;30;20054;-82
2022/01/10 10:30:27;;;;;;;30.73;17.50;;;6.20;98.70;;;;;;4780630;30;20048;-82
2022/01/10 10:33:10;;;;;;;33.03;16.92;;;6.20;98.60;;;;;;4781088;30;20102;-82
2022/01/10 10:35:37;;;;;;;29.27;16.33;;;6.10;98.50;;;;;;4787449;30;20036;-81
2022/01/10 10:38:03;;;;;;;28.63;16.45;;;6.10;98.60;;;;;;4786619;30;20101;-82
2022/01/10 10:40:29;;;;;;;32.60;17.40;;;6.00;98.70;;;;;;4784022;30;20050;-81
2022/01/10 10:42:58;;;;;;;31.10;17.63;;;6.00;98.90;;;;;;4766391;30;20047;-81
2022/01/10 10:45:25;;;;;;;33.33;18.85;;;5.90;98.90;;;;;;4777073;30;20039;-81
2022/01/10 10:47:51;;;;;;;31.27;17.25;;;5.80;99.10;;;;;;4776335;30;20044;-81
2022/01/10 10:50:18;;;;;;;29.98;17.80;;;5.80;99.30;;;;;;4777998;30;20035;-81
2022/01/10 10:52:44;;;;;;;30.67;17.70;;;5.80;99.40;;;;;;4780920;30;20036;-81
2022/01/10 10:55:13;;;;;;;32.53;18.47;;;5.80;99.30;;;;;;4782194;30;20289;-81
2022/01/10 10:57:40;;;;;;;30.48;19.27;;;5.90;99.30;;;;;;4781050;30;20297;-81
2022/01/10 11:00:12;;;;;;;30.27;18.33;;;5.90;99.40;;;;;;4736940;30;20039;-81
2022/01/10 11:02:38;;;;;;;30.38;19.58;;;6.00;99.10;;;;;;4776366;30;20040;-81
2022/01/10 11:05:07;;;;;;;36.40;18.98;;;6.00;99.20;;;;;;4766323;30;20204;-82
2022/01/10 11:07:35;;;;;;;30.67;17.92;;;6.00;99.00;;;;;;4765650;30;20242;-81
2022/01/10 11:10:05;;;;;;;31.27;19.13;;;6.00;99.10;;;;;;4766118;30;20070;-81
2022/01/10 11:12:34;;;;;;;38.08;20.05;;;6.10;98.90;;;;;;4766079;30;20050;-81
2022/01/10 11:15:00;;;;;;;32.03;19.95;;;6.00;98.70;;;;;;4781849;30;20040;-81
2022/01/10 11:17:27;;;;;;;32.63;18.55;;;6.00;98.80;;;;;;4765591;30;20035;-81
2022/01/10 11:20:17;;;;;;;34.90;20.92;;;5.90;98.70;;;;;;4780763;30;20032;-81
2022/01/10 11:22:51;;;;;;;28.80;18.23;;;5.90;99.00;;;;;;4780531;30;20102;-81
2022/01/10 11:25:33;;;;;;;30.20;18.17;;;5.90;99.00;;;;;;4759827;30;20035;-81
2022/01/10 11:28:06;;;;;;;31.48;19.58;;;5.90;99.00;;;;;;4765813;30;20035;-81
2022/01/10 11:30:45;;;;;;;31.80;19.42;;;5.90;99.30;;;;;;4780486;30;20032;-81
2022/01/10 11:33:14;;;;;;;35.65;19.52;;;5.80;99.30;;;;;;4780092;30;20081;-81
2022/01/10 11:35:41;;;;;;;31.17;19.38;;;5.80;99.60;;;;;;4780407;30;20411;-81
2022/01/10 11:38:36;;;;;;;30.25;19.05;;;5.80;99.70;;;;;;4780401;30;20320;-81
2022/01/10 11:41:04;;;;;;;31.08;19.13;;;5.80;99.70;;;;;;4780538;30;20040;-81
2022/01/10 11:43:45;;;;;;;32.40;18.67;;;5.80;99.60;;;;;;4780458;30;20058;-81
2022/01/10 11:46:32;;;;;;;33.65;19.50;;;5.80;99.70;;;;;;4778331;30;20370;-82
2022/01/10 11:49:03;;;;;;;37.55;21.30;;;5.80;99.90;;;;;;4729422;30;20156;-82
2022/01/10 11:51:34;;;;;;;31.88;20.23;;;5.80;99.80;;;;;;4726775;30;20041;-81
2022/01/10 11:54:14;;;;;;;33.45;20.23;;;5.80;99.70;;;;;;4712793;30;20103;-82
2022/01/10 11:56:47;;;;;;;31.65;19.92;;;5.90;99.80;;;;;;4714536;30;20033;-82
2022/01/10 11:59:33;;;;;;;31.88;19.90;;;5.90;99.80;;;;;;4714946;30;20331;-82
2022/01/10 12:02:10;;;;;;;36.88;20.38;;;6.00;99.60;;;;;;4712031;30;20029;-82
2022/01/10 12:04:41;;;;;;;34.72;19.23;;;6.00;99.80;;;;;;4728937;30;20044;-82
2022/01/10 12:07:13;;;;;;;31.85;19.42;;;6.00;99.80;;;;;;4712553;30;20043;-82
2022/01/10 12:09:39;;;;;;;29.80;19.55;;;6.00;99.90;;;;;;4739484;30;20276;-82
2022/01/10 12:12:08;;;;;;;34.92;20.75;;;6.00;99.90;;;;;;4729437;30;20040;-82
2022/01/10 12:14:34;;;;;;;29.50;19.52;;;5.90;99.80;;;;;;4714605;30;20130;-82
2022/01/10 12:17:01;;;;;;;33.50;19.77;;;5.90;99.90;;;;;;4713211;30;20029;-82
2022/01/10 12:19:28;;;;;;;35.42;20.13;;;6.00;99.90;;;;;;4713044;30;20320;-82
2022/01/10 12:21:55;;;;;;;26.33;18.05;;;6.00;99.90;;;;;;4712977;30;20033;-82
2022/01/10 12:24:22;;;;;;;32.72;19.30;;;6.10;99.80;;;;;;4714452;30;20067;-82
2022/01/10 12:26:48;;;;;;;29.67;17.55;;;6.00;99.80;;;;;;4743787;30;20050;-82
2022/01/10 12:29:15;;;;;;;29.50;18.25;;;6.00;99.80;;;;;;4777660;30;20089;-81
2022/01/10 12:31:42;;;;;;;;;;;6.10;99.80;;;;;;4765358;30;20339;-81
2022/01/10 12:34:09;;;;;;;32.53;19.83;;;6.00;99.80;;;;;;4780003;30;19929;-82
2022/01/10 12:36:37;;;;;;;38.58;20.48;;;6.00;99.70;;;;;;4735819;30;20039;-82
2022/01/10 12:39:22;;;;;;;33.05;19.80;;;6.00;99.70;;;;;;4779247;30;20039;-81
2022/01/10 12:41:49;;;;;;;38.03;23.67;;;6.10;99.80;;;;;;4764768;30;20090;-81
2022/01/10 12:44:15;;;;;;;34.65;22.35;;;6.20;99.60;;;;;;4764637;30;20042;-81
2022/01/10 12:46:41;;;;;;;39.60;22.83;;;6.20;99.30;;;;;;4779182;30;20059;-81
2022/01/10 12:49:10;;;;;;;30.65;18.92;;;6.30;99.30;;;;;;4779202;30;20098;-81
2022/01/10 12:51:39;;;;;;;31.48;19.65;;;6.20;99.00;;;;;;4778646;30;20050;-81
2022/01/10 12:54:14;;;;;;;32.30;19.80;;;6.10;98.80;;;;;;4790746;30;20076;-81
2022/01/10 12:56:41;;;;;;;33.50;21.10;;;6.10;99.00;;;;;;4759844;30;20039;-82
2022/01/10 12:59:07;;;;;;;31.80;20.80;;;6.20;99.10;;;;;;4762307;30;20063;-81
2022/01/10 13:01:33;;;;;;;30.73;19.60;;;6.30;98.90;;;;;;4776612;30;20028;-81
2022/01/10 13:04:00;;;;;;;35.13;19.35;;;6.30;98.80;;;;;;4765236;30;20116;-81
2022/01/10 13:06:32;;;;;;;31.95;20.70;;;6.30;98.60;;;;;;4747749;30;20039;-82
2022/01/10 13:08:58;;;;;;;33.60;20.98;;;6.30;98.60;;;;;;4763580;30;20028;-81
2022/01/10 13:11:31;;;;;;;31.00;18.52;;;6.20;98.40;;;;;;4779274;30;20034;-81
2022/01/10 13:14:14;;;;;;;30.70;19.67;;;6.20;98.70;;;;;;4764949;30;20040;-81
2022/01/10 13:16:41;;;;;;;32.95;19.52;;;6.10;98.60;;;;;;4779009;30;20150;-81
2022/01/10 13:19:11;;;;;;;;;;;6.00;98.90;;;;;;4764739;30;20098;-81
2022/01/10 13:21:44;;;;;;;33.83;20.45;;;6.00;99.00;;;;;;4777202;30;19955;-81
2022/01/10 13:24:17;;;;;;;32.80;21.25;;;5.90;99.10;;;;;;4778902;30;20337;-81
2022/01/10 13:26:58;;;;;;;37.38;20.92;;;5.90;99.20;;;;;;4778971;30;20028;-81
2022/01/10 13:29:39;;;;;;;33.80;20.90;;;5.80;99.20;;;;;;4763924;30;20286;-82
2022/01/10 13:32:23;;;;;;;35.67;20.30;;;5.80;99.30;;;;;;4764928;30;20039;-82
2022/01/10 13:34:54;;;;;;;33.45;21.13;;;5.70;99.40;;;;;;4784903;30;20331;-82
2022/01/10 13:38:00;;;;;;;32.88;20.35;;;5.80;99.40;;;;;;4771002;30;20312;-81
2022/01/10 13:40:36;;;;;;;38.70;23.27;;;5.70;99.50;;;;;;4755943;30;20050;-81
2022/01/10 13:43:04;;;;;;;36.05;21.02;;;5.70;99.70;;;;;;4776074;30;20043;-82
2022/01/10 13:45:48;;;;;;;35.80;21.52;;;5.70;99.60;;;;;;4775737;30;20039;-81
2022/01/10 13:48:24;;;;;;;33.60;20.25;;;5.70;99.70;;;;;;4777612;30;20067;-82
2022/01/10 13:50:56;;;;;;;34.33;20.33;;;5.70;99.60;;;;;;4756100;30;20136;-82
2022/01/10 13:53:27;;;;;;;33.65;21.17;;;5.60;99.50;;;;;;4776015;30;20034;-81
2022/01/10 13:56:22;;;;;;;35.25;20.95;;;5.70;99.60;;;;;;4777401;30;20042;-82
2022/01/10 13:58:56;;;;;;;32.45;19.45;;;5.70;99.50;;;;;;4771264;30;20081;-81
2022/01/10 14:01:29;;;;;;;34.85;20.85;;;5.60;99.30;;;;;;4776338;30;20224;-82
2022/01/10 14:03:57;;;;;;;36.50;20.25;;;5.70;99.30;;;;;;4773815;30;20094;-81
2022/01/10 14:06:29;;;;;;;35.58;20.13;;;5.60;99.10;;;;;;4754981;30;20228;-82
2022/01/10 14:08:59;;;;;;;33.92;20.30;;;5.60;99.10;;;;;;4769264;30;20028;-82
2022/01/10 14:11:27;;;;;;;39.58;21.20;;;5.60;99.10;;;;;;4775454;30;20391;-82
2022/01/10 14:13:58;;;;;;;39.85;22.70;;;5.60;99.20;;;;;;4775289;30;20040;-82
2022/01/10 14:16:39;;;;;;;40.72;23.38;;;5.60;99.30;;;;;;4769589;30;20091;-82
2022/01/10 14:19:08;;;;;;;38.58;23.90;;;5.60;99.20;;;;;;4750515;30;20032;-82
2022/01/10 14:21:35;;;;;;;40.38;22.50;;;5.60;99.20;;;;;;4778093;30;20032;-82
2022/01/10 14:24:02;;;;;;;38.28;22.50;;;5.60;99.10;;;;;;4778159;30;20039;-83
2022/01/10 14:26:27;;;;;;;39.05;23.13;;;5.60;99.00;;;;;;4750270;30;20048;-82
2022/01/10 14:28:53;;;;;;;39.65;22.55;;;5.60;98.90;;;;;;4737958;30;20060;-82
2022/01/10 14:31:20;;;;;;;38.78;22.98;;;5.60;99.00;;;;;;4767208;30;20036;-82
2022/01/10 14:33:47;;;;;;;39.10;23.67;;;5.60;99.00;;;;;;4782109;30;20327;-82
2022/01/10 14:36:13;;;;;;;37.63;22.77;;;5.60;99.00;;;;;;4782157;30;20027;-82
2022/01/10 14:38:40;;;;;;;42.03;23.55;;;5.60;98.90;;;;;;4767344;30;20032;-82
2022/01/10 14:41:06;;;;;;;40.30;22.40;;;5.50;98.90;;;;;;4781629;30;20076;-83
2022/01/10 14:43:32;;;;;;;39.15;21.75;;;5.50;99.00;;;;;;4778166;30;20047;-82
2022/01/10 14:45:58;;;;;;;37.00;21.40;;;5.40;99.00;;;;;;4771986;30;20299;-82
2022/01/10 14:48:28;;;;;;;37.37;22.00;;;5.40;99.10;;;;;;4781202;30;20070;-82
2022/01/10 14:50:55;;;;;;;34.65;20.77;;;5.40;99.10;;;;;;4766127;30;20281;-82
2022/01/10 14:53:21;;;;;;;38.17;22.05;;;5.40;99.20;;;;;;4781694;30;20304;-82
2022/01/10 14:55:49;;;;;;;35.67;20.92;;;5.40;99.30;;;;;;4752427;30;20042;-81
2022/01/10 14:58:16;;;;;;;39.25;21.38;;;5.40;99.30;;;;;;4780785;30;20275;-82
2022/01/10 15:00:44;;;;;;;33.67;20.05;;;5.30;99.40;;;;;;4776411;30;20260;-82
2022/01/10 15:03:16;;;;;;;34.15;21.02;;;5.30;99.40;;;;;;4781060;30;20111;-82
2022/01/10 15:05:42;;;;;;;38.45;20.55;;;5.30;99.50;;;;;;4751522;30;20122;-82
2022/01/10 15:08:10;;;;;;;38.10;20.77;;;5.20;99.60;;;;;;4740311;30;20092;-82
2022/01/10 15:10:35;;;;;;;34.53;19.60;;;5.20;99.70;;;;;;4781342;30;20118;-82
2022/01/10 15:13:01;;;;;;;33.22;19.15;;;5.20;99.80;;;;;;4780731;30;20051;-82
2022/01/10 15:15:28;;;;;;;38.10;20.73;;;5.10;99.80;;;;;;4780650;30;20180;-82
2022/01/10 15:17:53;;;;;;;37.37;21.17;;;5.10;99.80;;;;;;4779373;30;20134;-82
2022/01/10 15:20:19;;;;;;;36.92;20.65;;;5.10;99.70;;;;;;4749139;30;20076;-82
2022/01/10 15:22:45;;;;;;;34.15;20.50;;;5.10;99.80;;;;;;4778451;30;20059;-82
2022/01/10 15:25:11;;;;;;;35.15;20.98;;;5.00;99.80;;;;;;4747726;30;20039;-82
2022/01/10 15:27:37;;;;;;;36.03;21.23;;;5.00;99.80;;;;;;4777217;30;20036;-82
2022/01/10 15:30:04;;;;;;;41.28;22.13;;;5.00;99.80;;;;;;4750289;30;20039;-82
2022/01/10 15:32:30;;;;;;;37.80;21.13;;;5.00;99.70;;;;;;4736336;30;20032;-82
2022/01/10 15:34:56;;;;;;;33.95;20.50;;;4.90;99.70;;;;;;4760912;30;20036;-82
2022/01/10 15:37:22;;;;;;;38.83;21.05;;;4.90;99.90;;;;;;4774470;30;20035;-82
2022/01/10 15:39:47;;;;;;;37.30;21.30;;;4.80;99.90;;;;;;4777648;30;20039;-82
2022/01/10 15:42:14;;;;;;;37.65;20.80;;;4.80;99.90;;;;;;4732652;30;20078;-82
2022/01/10 15:44:49;;;;;;;38.25;21.08;;;4.80;99.90;;;;;;4780933;30;20035;-82
2022/01/10 15:47:16;;;;;;;40.78;21.80;;;4.70;99.90;;;;;;4746354;30;20059;-83
2022/01/10 15:49:42;;;;;;;;;;;4.70;99.90;;;;;;4779955;30;20348;-82
2022/01/10 15:52:08;;;;;;;36.83;21.00;;;4.70;99.90;;;;;;4750071;30;19921;-82
2022/01/10 15:54:34;;;;;;;35.10;20.63;;;4.70;99.90;;;;;;4750030;30;20082;-82
2022/01/10 15:57:00;;;;;;;33.10;18.63;;;4.70;99.90;;;;;;4765067;30;20044;-82
2022/01/10 15:59:26;;;;;;;37.67;20.38;;;4.70;99.90;;;;;;4736285;30;20236;-82
2022/01/10 16:01:53;;;;;;;37.25;21.25;;;4.60;99.90;;;;;;4779961;30;20035;-82
2022/01/10 16:04:19;;;;;;;36.08;20.08;;;4.70;99.90;;;;;;4759381;30;20235;-83
2022/01/10 16:06:45;;;;;;;35.97;20.38;;;4.60;99.90;;;;;;4789067;30;20150;-82
2022/01/10 16:09:11;;;;;;;36.35;21.38;;;4.60;99.90;;;;;;4777076;30;20043;-82
2022/01/10 16:11:40;;;;;;;35.40;20.60;;;4.60;99.90;;;;;;4748839;30;20043;-82
2022/01/10 16:14:06;;;;;;;38.15;20.75;;;4.60;99.90;;;;;;4764216;30;20365;-82
2022/01/10 16:16:32;;;;;;;38.90;21.38;;;4.60;99.90;;;;;;4756545;30;20099;-82
2022/01/10 16:18:58;;;;;;;34.58;20.55;;;4.50;99.90;;;;;;4762206;30;20039;-82
2022/01/10 16:21:24;;;;;;;33.45;19.88;;;4.50;99.90;;;;;;4735863;30;20047;-82
2022/01/10 16:23:50;;;;;;;37.88;22.20;;;4.50;99.90;;;;;;4759459;30;20032;-82
2022/01/10 16:26:16;;;;;;;34.90;22.00;;;4.50;99.90;;;;;;4754149;30;20283;-82
2022/01/10 16:28:42;;;;;;;38.85;21.58;;;4.50;99.90;;;;;;4756749;30;20044;-82
2022/01/10 16:31:09;;;;;;;36.28;20.65;;;4.50;99.90;;;;;;4763013;30;20157;-82
2022/01/10 16:33:36;;;;;;;35.30;20.15;;;4.50;99.90;;;;;;4779531;30;20308;-82
2022/01/10 16:36:05;;;;;;;42.03;21.08;;;4.50;99.90;;;;;;4760397;30;20040;-82